createdAt,value
2019-01-31T00:01:30.956Z,35.97
2019-01-31T00:04:29.791Z,38.43
2019-01-31T00:07:23.226Z,34.20
2019-01-31T00:10:25.507Z,38.00
2019-01-31T00:13:18.723Z,35.40
2019-01-31T00:16:12.814Z,36.90
2019-01-31T00:18:53.185Z,35.07
2019-01-31T00:21:49.665Z,37.07
2019-01-31T00:24:32.597Z,35.43
2019-01-31T00:27:31.403Z,36.43
2019-01-31T00:30:19.253Z,36.47
2019-01-31T00:33:27.678Z,38.97
2019-01-31T00:36:11.407Z,39.60
2019-01-31T00:39:01.880Z,37.83
2019-01-31T00:41:50.086Z,36.67
2019-01-31T00:44:51.793Z,37.80
2019-01-31T00:47:36.082Z,34.83
2019-01-31T00:50:22.830Z,36.27
2019-01-31T00:53:31.200Z,35.67
2019-01-31T00:56:39.550Z,36.50
2019-01-31T00:59:27.808Z,33.27
2019-01-31T01:02:24.131Z,35.00
2019-01-31T01:05:17.873Z,39.63
2019-01-31T01:08:11.060Z,39.70
2019-01-31T01:11:05.464Z,37.20
2019-01-31T01:13:58.471Z,39.30
2019-01-31T01:17:06.976Z,38.80
2019-01-31T01:19:53.432Z,38.77
2019-01-31T01:22:51.016Z,40.30
2019-01-31T01:25:31.943Z,37.43
2019-01-31T01:28:27.231Z,37.43
2019-01-31T01:31:23.011Z,37.83
2019-01-31T01:34:19.651Z,38.50
2019-01-31T01:37:21.303Z,37.23
2019-01-31T01:40:29.648Z,37.47
2019-01-31T01:43:24.471Z,36.13
2019-01-31T01:46:32.878Z,37.00
2019-01-31T01:49:25.607Z,36.50
2019-01-31T01:52:32.145Z,35.90
2019-01-31T01:55:18.475Z,34.23
2019-01-31T01:57:56.732Z,35.83
2019-01-31T02:00:47.929Z,37.00
2019-01-31T02:03:56.243Z,36.00
2019-01-31T02:06:51.841Z,31.60
2019-01-31T02:09:50.175Z,35.77
2019-01-31T02:12:58.547Z,34.20
2019-01-31T02:16:04.554Z,35.63
2019-01-31T02:18:44.679Z,32.93
2019-01-31T02:21:47.064Z,33.43
2019-01-31T02:24:41.845Z,35.77
2019-01-31T02:27:26.843Z,32.30
2019-01-31T02:30:10.006Z,33.50
2019-01-31T02:32:50.293Z,33.70
2019-01-31T02:35:58.636Z,33.93
2019-01-31T02:39:04.781Z,35.03
2019-01-31T02:41:52.809Z,33.90
2019-01-31T02:44:46.673Z,33.80
2019-01-31T02:47:54.991Z,32.67
2019-01-31T02:50:51.751Z,30.90
2019-01-31T02:53:48.090Z,32.97
2019-01-31T02:56:56.494Z,32.63
2019-01-31T02:59:40.236Z,34.07
2019-01-31T03:02:33.406Z,32.50
2019-01-31T03:05:12.420Z,31.47
2019-01-31T03:08:20.796Z,31.00
2019-01-31T03:11:29.174Z,31.47
2019-01-31T03:14:10.982Z,33.03
2019-01-31T03:17:06.555Z,31.07
2019-01-31T03:20:14.872Z,30.30
2019-01-31T03:23:12.462Z,31.57
2019-01-31T03:26:15.786Z,29.57
2019-01-31T03:29:19.535Z,30.00
2019-01-31T03:32:27.882Z,30.60
2019-01-31T03:35:24.699Z,31.80
2019-01-31T03:38:13.263Z,31.57
2019-01-31T03:40:55.794Z,29.67
2019-01-31T03:43:40.114Z,30.90
2019-01-31T03:46:48.459Z,30.47
2019-01-31T03:49:46.895Z,29.20
2019-01-31T03:52:43.717Z,30.77
2019-01-31T03:55:46.035Z,28.33
2019-01-31T03:58:37.354Z,28.53
2019-01-31T04:01:45.751Z,30.37
2019-01-31T04:04:20.635Z,31.77
2019-01-31T04:06:50.814Z,28.97
2019-01-31T04:09:20.975Z,31.20
2019-01-31T04:11:51.142Z,30.67
2019-01-31T04:14:22.301Z,29.00
2019-01-31T04:16:52.815Z,31.40
2019-01-31T04:19:23.034Z,27.00
2019-01-31T04:21:53.082Z,29.00
2019-01-31T04:24:23.066Z,29.17
2019-01-31T04:26:53.038Z,29.20
2019-01-31T04:29:23.034Z,29.13
2019-01-31T04:31:52.955Z,28.90
2019-01-31T04:34:23.163Z,30.57
2019-01-31T04:36:53.169Z,27.63
2019-01-31T04:39:23.210Z,28.33
2019-01-31T04:41:53.143Z,27.03
2019-01-31T04:44:23.322Z,29.37
2019-01-31T04:46:53.328Z,27.93
2019-01-31T04:49:23.278Z,29.73
2019-01-31T04:51:53.403Z,29.90
2019-01-31T04:54:23.476Z,31.40
2019-01-31T04:56:53.536Z,29.53
2019-01-31T04:59:24.254Z,30.70
2019-01-31T05:01:54.345Z,29.23
2019-01-31T05:04:24.590Z,29.10
2019-01-31T05:06:54.707Z,29.53
2019-01-31T05:09:24.710Z,31.33
2019-01-31T05:11:54.711Z,27.67
2019-01-31T05:14:24.736Z,26.97
2019-01-31T05:16:55.166Z,27.13
2019-01-31T05:19:25.286Z,25.87
2019-01-31T05:21:55.367Z,26.77
2019-01-31T05:24:25.569Z,26.17
2019-01-31T05:26:55.733Z,30.60
2019-01-31T05:29:25.713Z,28.47
2019-01-31T05:31:56.987Z,27.63
2019-01-31T05:34:26.903Z,27.40
2019-01-31T05:36:57.068Z,27.33
2019-01-31T05:39:27.248Z,27.97
2019-01-31T05:41:57.403Z,27.60
2019-01-31T05:44:27.583Z,26.37
2019-01-31T05:46:57.706Z,25.60
2019-01-31T05:49:27.846Z,27.87
2019-01-31T05:51:57.987Z,26.07
2019-01-31T05:54:28.088Z,29.03
2019-01-31T05:56:58.336Z,27.07
2019-01-31T05:59:28.513Z,28.17
2019-01-31T06:01:58.487Z,26.03
2019-01-31T06:04:28.547Z,25.73
2019-01-31T06:06:58.615Z,28.23
2019-01-31T06:09:28.666Z,26.33
2019-01-31T06:11:58.673Z,27.23
2019-01-31T06:14:28.762Z,26.83
2019-01-31T06:16:58.866Z,27.40
2019-01-31T06:19:29.672Z,29.93
2019-01-31T06:21:59.713Z,27.45
2019-01-31T06:24:41.693Z,27.10
2019-01-31T06:27:11.953Z,26.57
2019-01-31T06:29:42.154Z,26.53
2019-01-31T06:32:12.229Z,26.37
2019-01-31T06:34:42.201Z,26.87
2019-01-31T06:37:12.246Z,28.47
2019-01-31T06:39:42.356Z,29.57
2019-01-31T06:42:12.507Z,27.13
2019-01-31T06:44:42.593Z,29.13
2019-01-31T06:47:12.627Z,27.17
2019-01-31T06:49:42.636Z,27.63
2019-01-31T06:52:12.821Z,28.10
2019-01-31T06:54:42.865Z,29.43
2019-01-31T06:57:12.994Z,29.60
2019-01-31T06:59:44.863Z,28.70
2019-01-31T07:02:14.926Z,29.63
2019-01-31T07:04:44.950Z,27.27
2019-01-31T07:07:15.261Z,30.27
2019-01-31T07:09:45.256Z,27.83
2019-01-31T07:12:15.329Z,28.20
2019-01-31T07:14:45.292Z,28.00
2019-01-31T07:17:18.295Z,27.00
2019-01-31T07:19:47.245Z,27.23
2019-01-31T07:22:17.420Z,26.97
2019-01-31T07:24:47.468Z,27.23
2019-01-31T07:27:17.572Z,26.50
2019-01-31T07:29:47.579Z,26.63
2019-01-31T07:32:17.706Z,25.83
2019-01-31T07:34:47.893Z,28.43
2019-01-31T07:37:19.073Z,26.97
2019-01-31T07:39:49.029Z,25.53
2019-01-31T07:42:19.064Z,26.43
2019-01-31T07:44:49.166Z,25.80
2019-01-31T07:47:19.306Z,24.63
2019-01-31T07:49:49.306Z,26.30
2019-01-31T07:52:19.426Z,26.07
2019-01-31T07:54:49.536Z,24.77
2019-01-31T07:57:19.850Z,24.83
2019-01-31T07:59:49.861Z,23.57
2019-01-31T08:02:20.025Z,25.93
2019-01-31T08:04:50.046Z,24.67
2019-01-31T08:07:19.993Z,26.33
2019-01-31T08:09:50.127Z,27.10
2019-01-31T08:12:20.134Z,25.43
2019-01-31T08:14:50.166Z,26.17
2019-01-31T08:17:20.263Z,25.87
2019-01-31T08:19:50.384Z,25.20
2019-01-31T08:22:20.453Z,24.67
2019-01-31T08:24:50.635Z,26.33
2019-01-31T08:27:20.747Z,24.77
2019-01-31T08:29:50.977Z,26.23
2019-01-31T08:32:21.480Z,26.70
2019-01-31T08:35:03.005Z,26.40
2019-01-31T08:37:33.687Z,26.63
2019-01-31T08:40:04.607Z,25.57
2019-01-31T08:42:34.758Z,25.00
2019-01-31T08:45:05.507Z,25.47
2019-01-31T08:47:36.928Z,23.77
2019-01-31T08:50:09.047Z,23.37
2019-01-31T08:52:41.649Z,23.60
2019-01-31T08:55:11.289Z,24.10
2019-01-31T08:57:41.672Z,24.27
2019-01-31T09:00:16.546Z,25.37
2019-01-31T09:02:46.631Z,22.87
2019-01-31T09:05:16.999Z,21.40
2019-01-31T09:07:48.948Z,20.80
2019-01-31T09:10:23.406Z,21.87
2019-01-31T09:12:53.555Z,21.50
2019-01-31T09:15:54.037Z,21.57
2019-01-31T09:18:26.988Z,21.90
2019-01-31T09:21:18.807Z,22.90
2019-01-31T09:24:17.003Z,24.95
2019-01-31T09:27:26.985Z,21.23
2019-01-31T09:30:35.499Z,18.97
2019-01-31T09:33:27.127Z,21.10
2019-01-31T09:36:37.062Z,21.07
2019-01-31T09:39:45.547Z,19.70
2019-01-31T09:42:53.906Z,20.43
2019-01-31T09:45:54.547Z,22.20
2019-01-31T09:48:54.859Z,19.70
2019-01-31T09:51:44.027Z,20.07
2019-01-31T09:54:37.336Z,20.90
2019-01-31T09:57:45.775Z,19.57
2019-01-31T10:00:54.136Z,19.57
2019-01-31T10:03:54.163Z,19.70
2019-01-31T10:06:49.124Z,20.60
2019-01-31T10:09:48.003Z,19.83
2019-01-31T10:12:56.407Z,18.87
2019-01-31T10:15:56.333Z,20.93
2019-01-31T10:19:04.632Z,20.27
2019-01-31T10:22:13.118Z,18.73
2019-01-31T10:25:21.512Z,19.60
2019-01-31T10:28:29.989Z,19.80
2019-01-31T10:31:38.361Z,19.67
2019-01-31T10:34:35.309Z,19.33
2019-01-31T10:37:30.514Z,19.53
2019-01-31T10:40:38.842Z,20.90
2019-01-31T10:43:24.619Z,19.93
2019-01-31T10:46:04.281Z,20.65
2019-01-31T10:49:12.094Z,20.47
2019-01-31T10:52:06.667Z,21.27
2019-01-31T10:55:16.613Z,20.73
2019-01-31T10:57:59.301Z,20.63
2019-01-31T11:01:02.601Z,23.98
2019-01-31T11:04:03.462Z,22.17
2019-01-31T11:07:06.453Z,22.57
2019-01-31T11:10:00.528Z,21.43
2019-01-31T11:13:08.952Z,20.50
2019-01-31T11:16:03.927Z,23.77
2019-01-31T11:18:41.945Z,23.17
2019-01-31T11:21:42.385Z,22.33
2019-01-31T11:24:36.329Z,23.57
2019-01-31T11:27:18.933Z,22.93
2019-01-31T11:30:27.291Z,24.00
2019-01-31T11:33:35.771Z,23.93
2019-01-31T11:36:44.130Z,24.43
2019-01-31T11:39:41.655Z,26.67
2019-01-31T11:42:39.889Z,27.53
2019-01-31T11:45:25.153Z,25.07
2019-01-31T11:48:10.201Z,27.40
2019-01-31T11:51:20.478Z,27.93
2019-01-31T11:54:19.017Z,28.27
2019-01-31T11:57:06.248Z,26.70
2019-01-31T11:59:36.473Z,27.17
2019-01-31T12:02:07.521Z,25.83
2019-01-31T12:04:37.780Z,28.27
2019-01-31T12:07:08.580Z,24.53
2019-01-31T12:09:38.587Z,26.20
2019-01-31T12:12:09.023Z,30.65
2019-01-31T12:14:39.998Z,26.00
2019-01-31T12:17:10.102Z,25.20
2019-01-31T12:19:40.253Z,24.60
2019-01-31T12:22:10.652Z,25.80
2019-01-31T12:24:40.654Z,26.43
2019-01-31T12:27:10.899Z,25.63
2019-01-31T12:29:41.233Z,24.53
2019-01-31T12:32:11.392Z,25.70
2019-01-31T12:34:43.264Z,25.47
2019-01-31T12:37:13.407Z,29.50
2019-01-31T12:39:43.838Z,26.10
2019-01-31T12:42:14.109Z,26.73
2019-01-31T12:44:44.395Z,24.70
2019-01-31T12:47:26.138Z,26.77
2019-01-31T12:49:56.193Z,26.43
2019-01-31T12:52:28.086Z,27.37
2019-01-31T12:54:58.040Z,29.30
2019-01-31T12:57:28.321Z,26.87
2019-01-31T12:59:59.633Z,28.33
2019-01-31T13:02:29.875Z,27.07
2019-01-31T13:04:59.888Z,30.10
2019-01-31T13:07:30.018Z,26.63
2019-01-31T13:10:00.358Z,26.90
2019-01-31T13:12:30.641Z,29.27
2019-01-31T13:15:00.841Z,27.70
2019-01-31T13:17:32.208Z,28.50
2019-01-31T13:20:02.636Z,28.40
2019-01-31T13:22:32.674Z,29.87
2019-01-31T13:25:04.069Z,30.43
2019-01-31T13:27:34.201Z,31.60
2019-01-31T13:30:05.667Z,29.60
2019-01-31T13:32:36.266Z,28.43
2019-01-31T13:35:07.881Z,26.43
2019-01-31T13:37:39.085Z,28.23
2019-01-31T13:40:16.450Z,29.50
2019-01-31T13:42:46.665Z,25.93
2019-01-31T13:45:18.968Z,30.13
2019-01-31T13:47:49.233Z,36.07
2019-01-31T13:50:19.317Z,32.23
2019-01-31T13:52:49.389Z,31.63
2019-01-31T13:55:22.577Z,30.63
2019-01-31T13:57:52.757Z,26.77
2019-01-31T14:00:23.152Z,27.80
2019-01-31T14:02:53.372Z,29.00
2019-01-31T14:05:23.675Z,27.70
2019-01-31T14:07:55.022Z,28.57
2019-01-31T14:10:26.022Z,28.67
2019-01-31T14:12:57.254Z,28.20
2019-01-31T14:15:33.483Z,29.10
2019-01-31T14:18:01.935Z,27.37
2019-01-31T14:20:32.669Z,27.47
2019-01-31T14:23:02.807Z,27.43
2019-01-31T14:25:32.941Z,28.10
2019-01-31T14:28:02.910Z,28.40
2019-01-31T14:30:36.521Z,27.73
2019-01-31T14:33:13.555Z,29.27
2019-01-31T14:35:43.666Z,28.37
2019-01-31T14:38:13.849Z,29.70
2019-01-31T14:40:43.946Z,29.53
2019-01-31T14:43:14.290Z,30.47
2019-01-31T14:45:44.586Z,28.30
2019-01-31T14:48:17.126Z,29.63
2019-01-31T14:50:47.279Z,28.87
2019-01-31T14:53:17.393Z,27.57
2019-01-31T14:55:47.550Z,28.67
2019-01-31T14:58:19.908Z,29.23
2019-01-31T15:00:49.952Z,28.53
2019-01-31T15:03:20.273Z,28.47
2019-01-31T15:05:50.469Z,30.97
2019-01-31T15:08:20.601Z,30.47
2019-01-31T15:10:50.794Z,28.93
2019-01-31T15:13:22.018Z,29.73
2019-01-31T15:15:52.261Z,30.93
2019-01-31T15:18:22.449Z,28.53
2019-01-31T15:20:53.072Z,30.77
2019-01-31T15:23:24.022Z,30.97
2019-01-31T15:25:54.760Z,28.73
2019-01-31T15:28:24.832Z,31.37
2019-01-31T15:30:54.980Z,29.87
2019-01-31T15:33:25.119Z,29.73
2019-01-31T15:35:55.166Z,29.13
2019-01-31T15:38:25.188Z,31.57
2019-01-31T15:40:55.501Z,31.53
2019-01-31T15:43:25.700Z,30.83
2019-01-31T15:45:57.213Z,30.07
2019-01-31T15:48:29.750Z,31.67
2019-01-31T15:51:01.930Z,29.63
2019-01-31T15:53:34.105Z,30.00
2019-01-31T15:56:08.472Z,28.93
2019-01-31T15:58:42.688Z,30.47
2019-01-31T16:01:18.178Z,30.17
2019-01-31T16:03:49.173Z,30.57
2019-01-31T16:06:19.232Z,29.43
2019-01-31T16:08:51.345Z,28.00
2019-01-31T16:11:24.162Z,28.23
2019-01-31T16:13:55.463Z,29.13
2019-01-31T16:16:25.607Z,30.70
2019-01-31T16:18:56.317Z,29.00
2019-01-31T16:21:30.920Z,28.37
2019-01-31T16:24:02.563Z,28.83
2019-01-31T16:26:32.656Z,28.10
2019-01-31T16:29:02.778Z,28.10
2019-01-31T16:31:32.806Z,28.27
2019-01-31T16:34:06.765Z,30.13
2019-01-31T16:36:43.353Z,29.97
2019-01-31T16:39:18.375Z,28.63
2019-01-31T16:41:57.197Z,29.60
2019-01-31T16:44:30.119Z,27.33
2019-01-31T16:47:00.923Z,30.10
2019-01-31T16:49:34.382Z,31.17
2019-01-31T16:52:05.922Z,28.63
2019-01-31T16:54:42.136Z,26.17
2019-01-31T16:57:19.012Z,29.80
2019-01-31T16:59:52.653Z,30.37
2019-01-31T17:02:23.032Z,28.53
2019-01-31T17:05:36.377Z,28.13
2019-01-31T17:08:39.637Z,26.43
2019-01-31T17:11:21.184Z,26.67
2019-01-31T17:13:52.783Z,27.40
2019-01-31T17:16:32.132Z,25.17
2019-01-31T17:19:34.041Z,29.20
2019-01-31T17:22:07.280Z,30.27
2019-01-31T17:24:55.468Z,29.43
2019-01-31T17:27:47.876Z,29.17
2019-01-31T17:30:22.239Z,27.97
2019-01-31T17:33:10.500Z,27.17
2019-01-31T17:35:40.891Z,25.90
2019-01-31T17:38:25.231Z,28.17
2019-01-31T17:41:03.122Z,26.53
2019-01-31T17:43:33.792Z,27.43
2019-01-31T17:46:23.240Z,27.17
2019-01-31T17:48:53.770Z,26.90
2019-01-31T17:51:24.510Z,24.70
2019-01-31T17:53:57.396Z,26.07
2019-01-31T17:56:28.753Z,24.90
2019-01-31T17:59:04.279Z,27.73
2019-01-31T18:01:34.346Z,27.03
2019-01-31T18:04:04.576Z,25.50
2019-01-31T18:06:37.978Z,26.27
2019-01-31T18:09:09.983Z,24.23
2019-01-31T18:11:40.204Z,26.03
2019-01-31T18:14:25.682Z,25.53
2019-01-31T18:16:59.114Z,26.73
2019-01-31T18:19:31.121Z,27.80
2019-01-31T18:22:01.327Z,26.23
2019-01-31T18:24:31.511Z,24.30
2019-01-31T18:27:01.601Z,24.33
2019-01-31T18:29:31.744Z,28.33
2019-01-31T18:32:01.828Z,27.70
2019-01-31T18:34:32.306Z,27.90
2019-01-31T18:37:14.420Z,28.57
2019-01-31T18:47:36.815Z,31.03
2019-01-31T18:50:11.928Z,30.00
2019-01-31T18:52:42.115Z,29.33
2019-01-31T18:55:48.758Z,29.60
2019-01-31T18:58:20.119Z,30.10
2019-01-31T19:01:08.599Z,35.60
2019-01-31T19:03:39.225Z,33.90
2019-01-31T19:06:09.451Z,36.27
2019-01-31T19:08:58.848Z,32.13
2019-01-31T19:11:30.876Z,36.90
2019-01-31T19:14:01.448Z,37.50
2019-01-31T19:16:31.738Z,35.33
2019-01-31T19:19:02.033Z,36.53
2019-01-31T19:21:32.345Z,36.87
2019-01-31T19:24:02.546Z,40.43
2019-01-31T19:26:32.888Z,39.47
2019-01-31T19:29:03.487Z,41.07
2019-01-31T19:31:45.108Z,41.13
2019-01-31T19:34:16.879Z,45.07
2019-01-31T19:36:47.663Z,42.50
2019-01-31T19:39:19.293Z,40.87
2019-01-31T19:41:50.178Z,38.70
2019-01-31T19:44:20.774Z,42.47
2019-01-31T19:46:51.964Z,45.57
2019-01-31T19:49:22.293Z,43.13
2019-01-31T19:51:55.153Z,39.87
2019-01-31T19:54:26.985Z,41.23
2019-01-31T19:56:57.328Z,41.77
2019-01-31T19:59:27.491Z,42.80
2019-01-31T20:01:57.669Z,42.73
2019-01-31T20:04:27.852Z,53.33
2019-01-31T20:06:59.068Z,44.33
2019-01-31T20:09:30.647Z,43.73
2019-01-31T20:12:10.310Z,40.93
2019-01-31T20:14:45.669Z,42.83
2019-01-31T20:17:22.747Z,44.27
2019-01-31T20:19:54.258Z,44.17
2019-01-31T20:22:26.382Z,45.67
2019-01-31T20:24:57.687Z,44.97
2019-01-31T20:27:27.826Z,49.47
2019-01-31T20:29:57.907Z,49.90
2019-01-31T20:32:28.003Z,47.43
2019-01-31T20:34:58.220Z,50.83
2019-01-31T20:37:28.379Z,48.60
2019-01-31T20:39:58.486Z,51.00
2019-01-31T20:42:28.648Z,48.83
2019-01-31T20:44:59.487Z,49.63
2019-01-31T20:47:33.296Z,47.83
2019-01-31T20:50:32.644Z,45.90
2019-01-31T20:53:25.947Z,47.90
2019-01-31T20:56:24.975Z,49.93
2019-01-31T20:58:58.768Z,45.87
2019-01-31T21:02:01.981Z,51.83
2019-01-31T21:04:37.178Z,45.60
2019-01-31T21:07:10.425Z,46.87
2019-01-31T21:10:19.641Z,47.80
2019-01-31T21:13:26.676Z,48.27
2019-01-31T21:16:25.600Z,46.63
2019-01-31T21:19:07.479Z,48.80
2019-01-31T21:21:59.410Z,46.87
2019-01-31T21:24:56.304Z,45.37
2019-01-31T21:27:41.054Z,47.57
2019-01-31T21:30:50.996Z,45.77
2019-01-31T21:34:02.811Z,47.23
2019-01-31T21:37:07.820Z,49.47
2019-01-31T21:40:37.594Z,51.17
2019-01-31T21:43:10.928Z,37.27
2019-01-31T21:45:41.046Z,39.17
2019-01-31T21:48:11.565Z,40.60
2019-01-31T21:50:41.712Z,37.37
2019-01-31T21:53:13.343Z,35.77
2019-01-31T21:55:43.323Z,33.03
2019-01-31T21:58:13.386Z,30.30
2019-01-31T22:00:43.451Z,38.10
2019-01-31T22:03:15.243Z,34.63
2019-01-31T22:05:45.407Z,35.13
2019-01-31T22:08:15.852Z,34.70
2019-01-31T22:10:46.000Z,32.33
2019-01-31T22:13:16.024Z,32.70
2019-01-31T22:15:46.142Z,31.43
2019-01-31T22:18:17.964Z,34.23
2019-01-31T22:20:48.682Z,33.13
2019-01-31T22:23:20.284Z,31.13
2019-01-31T22:25:52.195Z,30.23
2019-01-31T22:28:22.281Z,29.93
2019-01-31T22:30:54.487Z,29.20
2019-01-31T22:33:24.645Z,29.43
2019-01-31T22:35:55.592Z,28.90
2019-01-31T22:38:25.616Z,27.90
2019-01-31T22:40:55.675Z,29.90
2019-01-31T22:43:25.788Z,25.60
2019-01-31T22:45:55.934Z,29.47
2019-01-31T22:48:26.319Z,29.13
2019-01-31T22:50:56.552Z,31.00
2019-01-31T22:53:26.627Z,25.50
2019-01-31T22:55:58.659Z,25.70
2019-01-31T22:58:28.743Z,25.07
2019-01-31T23:01:39.070Z,26.33
2019-01-31T23:04:09.311Z,28.37
2019-01-31T23:06:39.571Z,27.53
2019-01-31T23:09:11.853Z,27.30
2019-01-31T23:11:42.102Z,29.90
2019-01-31T23:14:12.231Z,31.13
2019-01-31T23:16:42.402Z,33.07
2019-01-31T23:19:12.558Z,31.13
2019-01-31T23:21:42.828Z,31.37
2019-01-31T23:24:12.987Z,28.07
2019-01-31T23:26:43.168Z,25.40
2019-01-31T23:29:13.296Z,25.97
2019-01-31T23:31:43.555Z,26.90
2019-01-31T23:34:13.691Z,23.23
2019-01-31T23:36:43.822Z,26.53
2019-01-31T23:39:13.963Z,28.60
2019-01-31T23:41:45.292Z,29.03
2019-01-31T23:44:15.334Z,29.53
2019-01-31T23:46:45.453Z,31.83
2019-01-31T23:49:15.473Z,29.37
2019-01-31T23:51:46.834Z,28.40
2019-01-31T23:54:17.222Z,26.40
2019-01-31T23:56:47.314Z,26.20
2019-01-31T23:59:17.198Z,26.77
